createdAt,value
2022-11-05T00:01:21.043Z,7.20
2022-11-05T00:03:12.139Z,8.98
2022-11-05T00:05:02.594Z,8.18
2022-11-05T00:06:52.991Z,8.43
2022-11-05T00:08:43.197Z,9.98
2022-11-05T00:10:20.931Z,9.82
2022-11-05T00:12:10.969Z,7.30
2022-11-05T00:14:02.801Z,9.88
2022-11-05T00:15:53.215Z,9.23
2022-11-05T00:17:26.000Z,9.32
2022-11-05T00:19:07.301Z,9.82
2022-11-05T00:20:40.073Z,10.03
2022-11-05T00:22:30.343Z,7.18
2022-11-05T00:24:24.275Z,8.13
2022-11-05T00:25:58.842Z,8.73
2022-11-05T00:27:33.363Z,9.57
2022-11-05T00:29:07.696Z,8.98
2022-11-05T00:30:40.431Z,7.57
2022-11-05T00:32:12.175Z,8.35
2022-11-05T00:33:44.895Z,8.75
2022-11-05T00:35:18.624Z,10.10
2022-11-05T00:36:50.423Z,8.20
2022-11-05T00:38:23.149Z,9.30
2022-11-05T00:39:54.900Z,9.43
2022-11-05T00:41:27.628Z,11.90
2022-11-05T00:43:18.010Z,11.40
2022-11-05T00:45:03.256Z,11.45
2022-11-05T00:46:36.013Z,10.55
2022-11-05T00:48:26.250Z,10.13
2022-11-05T00:49:58.051Z,10.30
2022-11-05T00:51:30.778Z,10.00
2022-11-05T00:53:03.186Z,10.07
2022-11-05T00:54:35.902Z,13.32
2022-11-05T00:56:09.011Z,13.60
2022-11-05T00:57:40.792Z,12.15
2022-11-05T00:59:13.518Z,13.05
2022-11-05T01:00:51.149Z,12.90
2022-11-05T01:02:23.079Z,12.20
2022-11-05T01:03:55.990Z,11.27
2022-11-05T01:05:29.026Z,11.60
2022-11-05T01:07:01.766Z,12.32
2022-11-05T01:08:34.887Z,12.57
2022-11-05T01:10:07.415Z,11.73
2022-11-05T01:11:41.812Z,11.00
2022-11-05T01:13:17.218Z,12.88
2022-11-05T01:14:49.274Z,14.98
2022-11-05T01:16:23.341Z,13.55
2022-11-05T01:17:55.108Z,12.98
2022-11-05T01:19:29.264Z,12.88
2022-11-05T01:21:11.086Z,12.93
2022-11-05T01:22:44.068Z,14.85
2022-11-05T01:24:16.797Z,14.23
2022-11-05T01:25:49.496Z,14.85
2022-11-05T01:27:22.154Z,21.35
2022-11-05T01:28:55.631Z,15.93
2022-11-05T01:30:28.494Z,15.30
2022-11-05T01:32:01.577Z,14.68
2022-11-05T01:33:34.390Z,14.33
2022-11-05T01:35:09.254Z,18.60
2022-11-05T01:36:42.012Z,17.95
2022-11-05T01:38:14.725Z,14.88
2022-11-05T01:39:47.441Z,16.38
2022-11-05T01:41:20.164Z,15.25
2022-11-05T01:42:52.909Z,15.35
2022-11-05T01:44:57.890Z,16.35
2022-11-05T01:46:37.540Z,19.70
2022-11-05T01:48:17.747Z,18.88
2022-11-05T01:49:49.550Z,16.63
2022-11-05T01:51:26.826Z,18.10
2022-11-05T01:53:04.586Z,19.23
2022-11-05T01:54:37.565Z,17.73
2022-11-05T01:56:14.053Z,22.33
2022-11-05T01:57:45.991Z,19.70
2022-11-05T01:59:24.126Z,19.52
2022-11-05T02:00:58.046Z,21.77
2022-11-05T02:02:32.363Z,26.15
2022-11-05T02:04:12.031Z,26.48
2022-11-05T02:05:45.685Z,25.48
2022-11-05T02:07:19.446Z,23.97
2022-11-05T02:08:59.545Z,24.03
2022-11-05T02:10:33.895Z,25.03
2022-11-05T02:12:07.764Z,27.00
2022-11-05T02:13:41.046Z,27.70
2022-11-05T02:15:15.231Z,27.67
2022-11-05T02:16:52.101Z,29.25
2022-11-05T02:18:34.327Z,29.95
2022-11-05T02:20:24.512Z,30.80
2022-11-05T02:22:18.969Z,30.08
2022-11-05T02:24:12.442Z,32.07
2022-11-05T02:26:05.249Z,31.92
2022-11-05T02:28:01.976Z,29.80
2022-11-05T02:30:04.660Z,27.77
2022-11-05T02:31:44.874Z,28.00
2022-11-05T02:33:32.037Z,32.40
2022-11-05T02:35:13.835Z,27.92
2022-11-05T02:36:51.410Z,28.00
2022-11-05T02:38:38.355Z,26.92
2022-11-05T02:40:17.710Z,28.95
2022-11-05T02:42:04.538Z,29.77
2022-11-05T02:43:47.022Z,30.45
2022-11-05T02:45:31.860Z,30.10
2022-11-05T02:47:17.970Z,29.52
2022-11-05T02:48:58.818Z,30.38
2022-11-05T02:50:36.337Z,28.08
2022-11-05T02:52:16.408Z,22.73
2022-11-05T02:53:54.279Z,21.52
2022-11-05T02:55:31.849Z,14.63
2022-11-05T02:57:05.785Z,10.85
2022-11-05T02:58:38.525Z,9.48
2022-11-05T03:00:50.121Z,7.10
2022-11-05T03:02:23.386Z,5.30
2022-11-05T03:03:58.715Z,6.00
2022-11-05T03:05:38.406Z,6.18
2022-11-05T03:07:26.506Z,7.65
2022-11-05T03:09:27.106Z,5.88
2022-11-05T03:11:05.349Z,6.25
2022-11-05T03:12:51.939Z,5.22
2022-11-05T03:14:34.787Z,5.03
2022-11-05T03:16:11.686Z,5.50
2022-11-05T03:17:58.695Z,4.32
2022-11-05T03:19:38.175Z,5.93
2022-11-05T03:21:18.531Z,6.75
2022-11-05T03:22:55.932Z,5.63
2022-11-05T03:24:32.334Z,4.85
2022-11-05T03:26:09.098Z,6.40
2022-11-05T03:27:46.626Z,4.95
2022-11-05T03:29:25.580Z,4.20
2022-11-05T03:30:58.301Z,4.03
2022-11-05T03:32:34.902Z,3.63
2022-11-05T03:34:12.731Z,4.93
2022-11-05T03:35:48.470Z,5.75
2022-11-05T03:37:23.963Z,5.43
2022-11-05T03:38:56.921Z,3.95
2022-11-05T03:40:33.021Z,5.07
2022-11-05T03:42:09.237Z,3.72
2022-11-05T03:43:46.065Z,4.43
2022-11-05T03:45:22.669Z,4.25
2022-11-05T03:47:00.505Z,4.57
2022-11-05T03:48:38.743Z,6.60
2022-11-05T03:50:20.975Z,4.78
2022-11-05T03:52:00.056Z,3.03
2022-11-05T03:53:37.275Z,3.40
2022-11-05T03:55:10.212Z,4.85
2022-11-05T03:56:50.937Z,4.38
2022-11-05T03:58:23.827Z,3.00
2022-11-05T03:59:56.569Z,4.68
2022-11-05T04:01:30.514Z,2.97
2022-11-05T04:03:03.405Z,4.97
2022-11-05T04:04:36.257Z,4.45
2022-11-05T04:06:28.852Z,4.32
2022-11-05T04:08:19.239Z,4.07
2022-11-05T04:10:09.693Z,5.25
2022-11-05T04:12:00.209Z,4.65
2022-11-05T04:13:33.570Z,5.88
2022-11-05T04:15:07.125Z,6.22
2022-11-05T04:16:57.179Z,6.93
2022-11-05T04:18:28.966Z,7.97
2022-11-05T04:20:19.145Z,7.97
2022-11-05T04:22:10.017Z,7.53
2022-11-05T04:24:00.334Z,8.10
2022-11-05T04:25:33.135Z,7.22
2022-11-05T04:27:04.973Z,6.95
2022-11-05T04:28:51.625Z,7.38
2022-11-05T04:30:24.349Z,5.85
2022-11-05T04:31:56.432Z,6.93
2022-11-05T04:33:29.151Z,6.03
2022-11-05T04:35:01.876Z,6.00
2022-11-05T04:36:34.888Z,5.53
2022-11-05T04:38:10.993Z,6.32
2022-11-05T04:39:42.757Z,5.07
2022-11-05T04:41:17.191Z,4.22
2022-11-05T04:42:49.913Z,4.93
2022-11-05T04:44:22.640Z,3.53
2022-11-05T04:45:55.370Z,6.57
2022-11-05T04:47:28.102Z,4.22
2022-11-05T04:49:00.828Z,5.40
2022-11-05T04:50:34.049Z,3.72
2022-11-05T04:52:06.777Z,3.80
2022-11-05T04:53:40.859Z,5.10
2022-11-05T04:55:14.281Z,4.30
2022-11-05T04:56:47.028Z,3.63
2022-11-05T04:58:20.274Z,4.00
2022-11-05T04:59:54.937Z,4.05
2022-11-05T05:01:27.873Z,4.35
2022-11-05T05:03:00.771Z,4.93
2022-11-05T05:04:32.547Z,5.13
2022-11-05T05:06:05.449Z,4.68
2022-11-05T05:07:38.202Z,4.18
2022-11-05T05:09:12.329Z,4.40
2022-11-05T05:10:45.035Z,4.22
2022-11-05T05:12:17.770Z,4.97
2022-11-05T05:13:51.392Z,4.82
2022-11-05T05:15:24.148Z,5.85
2022-11-05T05:16:56.903Z,6.32
2022-11-05T05:18:29.038Z,5.65
2022-11-05T05:20:19.344Z,6.60
2022-11-05T05:21:52.092Z,7.38
2022-11-05T05:23:23.847Z,7.75
2022-11-05T05:24:59.807Z,6.78
2022-11-05T05:26:32.674Z,5.00
2022-11-05T05:28:05.688Z,6.85
2022-11-05T05:29:38.418Z,4.18
2022-11-05T05:31:11.146Z,4.15
2022-11-05T05:32:43.910Z,6.03
2022-11-05T05:34:16.630Z,4.63
2022-11-05T05:35:48.399Z,6.05
2022-11-05T05:37:21.156Z,7.78
2022-11-05T05:38:53.986Z,6.78
2022-11-05T05:40:28.058Z,6.38
2022-11-05T05:42:00.790Z,8.80
2022-11-05T05:43:34.396Z,6.88
2022-11-05T05:45:07.988Z,9.57
2022-11-05T05:46:40.738Z,10.38
2022-11-05T05:48:13.454Z,8.43
2022-11-05T05:49:46.195Z,8.63
2022-11-05T05:51:20.065Z,11.40
2022-11-05T05:52:52.950Z,9.40
2022-11-05T05:54:31.728Z,8.50
2022-11-05T05:56:07.456Z,8.40
2022-11-05T05:57:40.348Z,9.13
2022-11-05T05:59:13.401Z,9.02
2022-11-05T06:00:45.155Z,9.05
2022-11-05T06:02:17.974Z,7.65
2022-11-05T06:03:50.843Z,13.40
2022-11-05T06:05:23.604Z,10.73
2022-11-05T06:06:56.355Z,8.68
2022-11-05T06:08:28.641Z,10.63
2022-11-05T06:10:01.384Z,9.70
2022-11-05T06:11:35.462Z,9.60
2022-11-05T06:13:08.601Z,10.50
2022-11-05T06:14:41.477Z,9.80
2022-11-05T06:16:15.222Z,13.88
2022-11-05T06:17:47.946Z,11.27
2022-11-05T06:19:19.686Z,10.55
2022-11-05T06:20:52.392Z,11.38
2022-11-05T06:22:25.146Z,11.98
2022-11-05T06:23:57.876Z,13.15
2022-11-05T06:25:30.617Z,14.48
2022-11-05T06:27:04.777Z,14.27
2022-11-05T06:28:37.893Z,15.23
2022-11-05T06:30:11.680Z,14.45
2022-11-05T06:31:44.497Z,13.52
2022-11-05T06:33:17.211Z,14.88
2022-11-05T06:34:49.987Z,15.25
2022-11-05T06:36:22.733Z,15.18
2022-11-05T06:38:00.211Z,14.85
2022-11-05T06:39:32.917Z,15.68
2022-11-05T06:41:10.313Z,12.57
2022-11-05T06:42:44.870Z,13.70
2022-11-05T06:44:17.629Z,15.57
2022-11-05T06:45:50.379Z,18.00
2022-11-05T06:47:23.108Z,16.10
2022-11-05T06:48:55.865Z,18.98
2022-11-05T06:50:29.221Z,16.67
2022-11-05T06:52:01.972Z,17.50
2022-11-05T06:53:35.594Z,17.38
2022-11-05T06:55:09.005Z,16.90
2022-11-05T06:56:41.761Z,14.50
2022-11-05T06:58:15.505Z,17.63
2022-11-05T06:59:48.230Z,20.83
2022-11-05T07:01:21.310Z,19.27
2022-11-05T07:02:55.715Z,17.42
2022-11-05T07:04:28.577Z,15.20
2022-11-05T07:06:01.870Z,17.10
2022-11-05T07:07:33.618Z,17.73
2022-11-05T07:09:06.346Z,15.90
2022-11-05T07:10:39.136Z,17.48
2022-11-05T07:12:11.905Z,15.57
2022-11-05T07:13:46.028Z,14.18
2022-11-05T07:15:18.798Z,12.75
2022-11-05T07:16:51.526Z,20.40
2022-11-05T07:18:24.926Z,15.25
2022-11-05T07:19:56.686Z,15.27
2022-11-05T07:21:29.571Z,16.35
2022-11-05T07:23:03.531Z,16.30
2022-11-05T07:24:36.277Z,15.38
2022-11-05T07:26:09.002Z,13.15
2022-11-05T07:27:41.931Z,13.98
2022-11-05T07:29:16.018Z,12.00
2022-11-05T07:30:49.137Z,15.98
2022-11-05T07:32:21.886Z,13.10
2022-11-05T07:33:54.601Z,14.00
2022-11-05T07:35:27.933Z,17.48
2022-11-05T07:37:00.658Z,12.55
2022-11-05T07:38:33.415Z,15.52
2022-11-05T07:40:07.330Z,12.77
2022-11-05T07:41:40.063Z,12.77
2022-11-05T07:43:13.297Z,13.63
2022-11-05T07:44:48.141Z,14.98
2022-11-05T07:46:20.868Z,12.90
2022-11-05T07:47:55.287Z,13.07
2022-11-05T07:49:28.006Z,14.27
2022-11-05T07:51:00.777Z,12.17
2022-11-05T07:52:33.675Z,11.65
2022-11-05T07:54:06.462Z,11.43
2022-11-05T07:55:41.144Z,10.82
2022-11-05T07:57:14.106Z,15.18
2022-11-05T07:58:46.878Z,14.27
2022-11-05T08:00:22.899Z,15.23
2022-11-05T08:01:55.857Z,15.30
2022-11-05T08:03:28.847Z,15.95
2022-11-05T08:05:01.645Z,17.53
2022-11-05T08:06:34.513Z,12.70
2022-11-05T08:08:08.464Z,15.30
2022-11-05T08:09:41.244Z,14.00
2022-11-05T08:11:13.961Z,14.88
2022-11-05T08:12:46.706Z,14.48
2022-11-05T08:14:19.427Z,15.98
2022-11-05T08:15:53.674Z,16.05
2022-11-05T08:17:26.422Z,16.93
2022-11-05T08:18:59.230Z,22.17
2022-11-05T08:20:32.589Z,16.58
2022-11-05T08:22:05.317Z,12.48
2022-11-05T08:23:38.929Z,15.30
2022-11-05T08:25:12.410Z,13.47
2022-11-05T08:26:45.141Z,16.03
2022-11-05T08:28:17.902Z,15.75
2022-11-05T08:29:50.605Z,16.90
2022-11-05T08:31:24.659Z,19.83
2022-11-05T08:32:58.709Z,14.97
2022-11-05T08:34:31.456Z,16.63
2022-11-05T08:36:05.325Z,15.20
2022-11-05T08:37:38.065Z,15.10
2022-11-05T08:39:16.670Z,15.27
2022-11-05T08:40:55.943Z,13.63
2022-11-05T08:42:28.698Z,15.33
2022-11-05T08:44:01.460Z,11.97
2022-11-05T08:45:35.418Z,13.63
2022-11-05T08:47:09.560Z,13.33
2022-11-05T08:48:42.309Z,12.83
2022-11-05T08:50:15.047Z,12.87
2022-11-05T08:51:48.073Z,12.23
2022-11-05T08:53:21.113Z,14.27
2022-11-05T08:54:53.970Z,12.90
2022-11-05T08:56:26.731Z,13.40
2022-11-05T08:58:00.398Z,13.90
2022-11-05T08:59:33.116Z,13.07
2022-11-05T09:01:06.544Z,15.77
2022-11-05T09:02:40.748Z,16.00
2022-11-05T09:04:13.573Z,13.48
2022-11-05T09:05:46.421Z,14.57
2022-11-05T09:07:19.148Z,14.37
2022-11-05T09:08:51.947Z,12.97
2022-11-05T09:10:25.078Z,13.47
2022-11-05T09:12:11.582Z,13.93
2022-11-05T09:13:45.317Z,12.53
2022-11-05T09:15:18.145Z,13.43
2022-11-05T09:16:50.880Z,11.93
2022-11-05T09:18:24.997Z,10.60
2022-11-05T09:19:57.721Z,10.87
2022-11-05T09:21:30.484Z,12.40
2022-11-05T09:23:03.509Z,11.67
2022-11-05T09:24:36.247Z,13.37
2022-11-05T09:26:09.831Z,15.60
2022-11-05T09:27:42.743Z,34.07
2022-11-05T09:29:15.491Z,28.77
2022-11-05T09:30:50.279Z,23.73
2022-11-05T09:32:23.186Z,17.13
2022-11-05T09:33:57.401Z,86.80
2022-11-05T09:35:30.137Z,29.23
2022-11-05T09:37:03.079Z,11.67
2022-11-05T09:38:36.440Z,11.33
2022-11-05T09:40:16.240Z,14.50
2022-11-05T09:41:50.151Z,15.90
2022-11-05T09:43:31.504Z,10.53
2022-11-05T09:45:09.285Z,13.63
2022-11-05T09:46:46.567Z,11.57
2022-11-05T09:48:22.396Z,12.37
2022-11-05T09:49:58.178Z,10.57
2022-11-05T09:51:31.259Z,9.53
2022-11-05T09:53:05.511Z,8.87
2022-11-05T09:54:40.027Z,12.00
2022-11-05T09:56:23.227Z,10.73
2022-11-05T09:57:59.229Z,12.10
2022-11-05T09:59:37.540Z,12.13
2022-11-05T10:01:16.953Z,13.07
2022-11-05T10:02:53.088Z,10.53
2022-11-05T10:04:28.424Z,10.07
2022-11-05T10:06:08.340Z,11.53
2022-11-05T10:07:45.939Z,11.50
2022-11-05T10:09:23.486Z,11.00
2022-11-05T10:13:02.336Z,9.53
2022-11-05T10:14:40.018Z,10.00
2022-11-05T10:16:23.474Z,6.60
2022-11-05T10:18:00.102Z,9.23
2022-11-05T10:19:40.393Z,7.83
2022-11-05T10:21:32.304Z,6.50
2022-11-05T10:23:15.017Z,8.60
2022-11-05T10:24:50.548Z,12.63
2022-11-05T10:26:27.130Z,5.67
2022-11-05T10:28:01.851Z,6.10
2022-11-05T10:29:36.005Z,12.60
2022-11-05T10:31:12.816Z,7.70
2022-11-05T10:32:47.185Z,12.33
2022-11-05T10:34:21.087Z,6.77
2022-11-05T10:35:59.903Z,7.20
2022-11-05T10:37:39.566Z,4.10
2022-11-05T10:39:15.239Z,7.27
2022-11-05T10:40:56.606Z,6.67
2022-11-05T10:42:47.414Z,7.20
2022-11-05T10:44:33.089Z,4.83
2022-11-05T10:46:15.774Z,5.80
2022-11-05T10:47:58.891Z,7.93
2022-11-05T10:49:46.970Z,3.83
2022-11-05T10:51:20.388Z,6.73
2022-11-05T10:53:00.007Z,6.00
2022-11-05T10:54:35.569Z,5.67
2022-11-05T10:56:30.435Z,5.93
2022-11-05T10:58:11.337Z,4.93
2022-11-05T10:59:44.090Z,4.60
2022-11-05T11:01:16.930Z,5.33
2022-11-05T11:02:52.309Z,4.83
2022-11-05T11:04:27.811Z,4.57
2022-11-05T11:06:01.999Z,6.73
2022-11-05T11:07:36.137Z,6.80
2022-11-05T11:09:21.661Z,6.17
2022-11-05T11:10:58.881Z,4.67
2022-11-05T11:12:41.057Z,5.27
2022-11-05T11:14:22.250Z,4.03
2022-11-05T11:15:55.753Z,5.67
2022-11-05T11:17:30.345Z,4.97
2022-11-05T11:19:04.137Z,5.30
2022-11-05T11:20:45.554Z,5.47
2022-11-05T11:22:21.273Z,6.60
2022-11-05T11:23:58.238Z,4.53
2022-11-05T11:25:38.870Z,6.10
2022-11-05T11:27:14.287Z,6.07
2022-11-05T11:28:49.914Z,4.93
2022-11-05T11:30:23.031Z,7.30
2022-11-05T11:31:56.840Z,3.77
2022-11-05T11:33:30.475Z,4.20
2022-11-05T11:35:04.789Z,4.93
2022-11-05T11:36:41.318Z,6.47
2022-11-05T11:38:17.202Z,5.17
2022-11-05T11:39:53.252Z,6.30
2022-11-05T11:41:31.341Z,6.13
2022-11-05T11:43:07.230Z,7.17
2022-11-05T11:44:43.867Z,6.30
2022-11-05T11:46:19.215Z,4.33
2022-11-05T11:47:51.976Z,3.93
2022-11-05T11:49:40.446Z,5.63
2022-11-05T11:51:19.450Z,3.37
2022-11-05T11:52:53.152Z,3.73
2022-11-05T11:54:29.151Z,4.80
2022-11-05T11:56:15.489Z,4.67
2022-11-05T11:57:51.612Z,5.60
2022-11-05T11:59:53.767Z,5.37
2022-11-05T12:01:47.967Z,7.87
2022-11-05T12:03:26.362Z,9.20
2022-11-05T12:05:19.034Z,4.10
2022-11-05T12:06:58.804Z,4.67
2022-11-05T12:08:47.659Z,5.30
2022-11-05T12:10:35.581Z,5.27
2022-11-05T12:12:13.029Z,6.00
2022-11-05T12:14:13.951Z,4.07
2022-11-05T12:15:52.072Z,6.00
2022-11-05T12:17:40.619Z,7.47
2022-11-05T12:19:27.538Z,6.87
2022-11-05T12:21:07.459Z,4.13
2022-11-05T12:23:08.407Z,4.60
2022-11-05T12:25:04.047Z,4.37
2022-11-05T12:26:45.556Z,4.00
2022-11-05T12:29:12.193Z,4.13
2022-11-05T12:30:49.779Z,4.83
2022-11-05T12:32:58.412Z,2.37
2022-11-05T12:34:50.035Z,4.23
2022-11-05T12:36:33.348Z,3.07
2022-11-05T12:38:24.212Z,3.30
2022-11-05T12:40:15.580Z,2.33
2022-11-05T12:41:56.696Z,4.63
2022-11-05T12:43:36.190Z,2.77
2022-11-05T12:45:22.905Z,5.43
2022-11-05T12:47:07.249Z,2.87
2022-11-05T12:48:58.035Z,5.17
2022-11-05T12:50:39.339Z,2.23
2022-11-05T12:52:23.458Z,2.13
2022-11-05T12:54:08.303Z,5.17
2022-11-05T12:55:48.278Z,2.37
2022-11-05T12:57:24.134Z,2.07
2022-11-05T12:59:07.012Z,4.30
2022-11-05T13:00:45.153Z,5.23
2022-11-05T13:02:25.973Z,4.67
2022-11-05T13:04:01.794Z,3.07
2022-11-05T13:05:40.071Z,4.00
2022-11-05T13:07:17.625Z,2.20
2022-11-05T13:08:58.502Z,3.33
2022-11-05T13:10:36.200Z,2.67
2022-11-05T13:12:12.659Z,4.00
2022-11-05T13:13:49.556Z,5.17
2022-11-05T13:15:28.037Z,3.03
2022-11-05T13:17:04.217Z,2.33
2022-11-05T13:18:46.907Z,1.83
2022-11-05T13:20:23.533Z,2.90
2022-11-05T13:22:00.780Z,4.10
2022-11-05T13:23:38.959Z,3.63
2022-11-05T13:25:18.049Z,3.53
2022-11-05T13:26:56.751Z,2.57
2022-11-05T13:28:39.456Z,4.33
2022-11-05T13:30:16.673Z,5.80
2022-11-05T13:31:57.720Z,3.70
2022-11-05T13:33:34.571Z,2.20
2022-11-05T13:35:16.813Z,2.93
2022-11-05T13:37:12.440Z,3.73
2022-11-05T13:39:00.940Z,2.50
2022-11-05T13:40:44.938Z,3.80
2022-11-05T13:42:52.485Z,1.83
2022-11-05T13:44:54.509Z,2.23
2022-11-05T13:46:42.724Z,1.83
2022-11-05T13:48:45.697Z,3.57
2022-11-05T13:50:50.153Z,3.23
2022-11-05T13:52:45.833Z,4.17
2022-11-05T13:54:55.641Z,2.30
2022-11-05T13:56:39.349Z,3.23
2022-11-05T13:58:37.150Z,1.63
2022-11-05T14:00:16.894Z,2.03
2022-11-05T14:01:54.563Z,3.43
2022-11-05T14:03:27.730Z,2.17
2022-11-05T14:05:02.514Z,2.23
2022-11-05T14:06:37.981Z,4.10
2022-11-05T14:08:17.109Z,2.60
2022-11-05T14:09:55.779Z,2.40
2022-11-05T14:11:31.656Z,2.23
2022-11-05T14:13:18.056Z,3.83
2022-11-05T14:14:58.855Z,2.20
2022-11-05T14:16:48.644Z,3.40
2022-11-05T14:18:38.306Z,1.70
2022-11-05T14:20:42.846Z,5.00
2022-11-05T14:22:39.789Z,3.77
2022-11-05T14:24:42.865Z,2.53
2022-11-05T14:26:19.601Z,1.90
2022-11-05T14:27:53.425Z,2.43
2022-11-05T14:29:26.250Z,2.67
2022-11-05T14:30:59.030Z,2.57
2022-11-05T14:32:45.051Z,5.70
2022-11-05T14:34:24.794Z,2.57
2022-11-05T14:36:29.238Z,3.27
2022-11-05T14:38:04.522Z,3.03
2022-11-05T14:39:37.786Z,4.17
2022-11-05T14:41:10.608Z,3.27
2022-11-05T14:42:51.219Z,5.33
2022-11-05T14:44:25.363Z,5.77
2022-11-05T14:46:01.474Z,4.00
2022-11-05T14:47:37.633Z,5.37
2022-11-05T14:49:18.181Z,3.67
2022-11-05T14:50:51.728Z,6.33
2022-11-05T14:52:25.069Z,6.83
2022-11-05T14:54:05.909Z,10.23
2022-11-05T14:55:40.780Z,16.10
2022-11-05T14:57:15.600Z,21.77
2022-11-05T14:58:48.379Z,19.33
2022-11-05T15:00:42.608Z,29.70
2022-11-05T15:02:18.327Z,8.87
2022-11-05T15:04:17.780Z,11.53
2022-11-05T15:05:51.976Z,35.70
2022-11-05T15:07:37.346Z,23.97
2022-11-05T15:09:20.412Z,46.67
2022-11-05T15:10:55.398Z,22.90
2022-11-05T15:12:35.445Z,17.47
2022-11-05T15:14:20.434Z,14.97
2022-11-05T15:15:53.370Z,11.77
2022-11-05T15:17:29.867Z,13.57
2022-11-05T15:19:04.287Z,7.10
2022-11-05T15:20:41.075Z,6.83
2022-11-05T15:22:28.375Z,7.40
2022-11-05T15:24:03.408Z,10.10
2022-11-05T15:25:47.870Z,6.17
2022-11-05T15:27:40.393Z,7.27
2022-11-05T15:29:18.758Z,7.73
2022-11-05T15:30:59.221Z,8.73
2022-11-05T15:32:37.414Z,6.77
2022-11-05T15:34:19.949Z,6.07
2022-11-05T15:35:52.838Z,7.03
2022-11-05T15:37:27.220Z,7.33
2022-11-05T15:39:29.070Z,8.07
2022-11-05T15:41:00.184Z,9.33
2022-11-05T15:42:32.928Z,8.73
2022-11-05T15:44:05.809Z,6.57
2022-11-05T15:45:38.546Z,8.67
2022-11-05T15:47:17.289Z,7.97
2022-11-05T15:48:52.762Z,7.00
2022-11-05T15:50:25.682Z,8.80
2022-11-05T15:51:58.493Z,7.60
2022-11-05T15:53:56.148Z,8.20
2022-11-05T15:55:27.984Z,11.10
2022-11-05T15:57:02.090Z,9.47
2022-11-05T15:58:36.189Z,9.73
2022-11-05T16:00:17.822Z,8.13
2022-11-05T16:01:54.129Z,8.50
2022-11-05T16:03:30.224Z,10.37
2022-11-05T16:05:06.702Z,10.67
2022-11-05T16:06:41.438Z,9.93
2022-11-05T16:08:19.052Z,8.67
2022-11-05T16:09:54.855Z,16.47
2022-11-05T16:11:28.052Z,10.45
2022-11-05T16:13:32.159Z,11.87
2022-11-05T16:15:20.229Z,13.67
2022-11-05T16:16:52.963Z,13.57
2022-11-05T16:18:30.944Z,13.95
2022-11-05T16:20:04.599Z,14.87
2022-11-05T16:21:54.056Z,13.83
2022-11-05T16:23:39.980Z,14.18
2022-11-05T16:25:30.145Z,14.27
2022-11-05T16:27:04.115Z,11.47
2022-11-05T16:28:38.259Z,13.73
2022-11-05T16:30:19.247Z,16.50
2022-11-05T16:31:53.418Z,15.02
2022-11-05T16:33:33.715Z,14.68
2022-11-05T16:35:08.254Z,16.37
2022-11-05T16:36:41.018Z,14.32
2022-11-05T16:38:14.412Z,16.47
2022-11-05T16:39:47.442Z,16.75
2022-11-05T16:41:23.532Z,15.43
2022-11-05T16:42:56.310Z,14.43
2022-11-05T16:44:30.910Z,16.60
2022-11-05T16:46:03.668Z,16.23
2022-11-05T16:47:36.434Z,15.57
2022-11-05T16:49:12.101Z,14.77
2022-11-05T16:50:45.580Z,14.15
2022-11-05T16:52:18.530Z,14.07
2022-11-05T16:53:51.271Z,17.10
2022-11-05T16:55:24.032Z,17.15
2022-11-05T16:56:56.880Z,14.43
2022-11-05T16:58:30.069Z,16.23
2022-11-05T17:00:05.753Z,18.02
2022-11-05T17:01:41.641Z,14.30
2022-11-05T17:03:14.514Z,15.23
2022-11-05T17:04:47.369Z,14.73
2022-11-05T17:06:21.848Z,15.90
2022-11-05T17:07:54.941Z,16.15
2022-11-05T17:09:27.690Z,16.67
2022-11-05T17:11:01.401Z,13.80
2022-11-05T17:12:35.059Z,15.00
2022-11-05T17:14:09.368Z,16.40
2022-11-05T17:15:44.980Z,15.43
2022-11-05T17:17:17.744Z,15.10
2022-11-05T17:18:50.912Z,17.73
2022-11-05T17:20:39.439Z,16.20
2022-11-05T17:22:13.314Z,14.77
2022-11-05T17:23:46.034Z,17.45
2022-11-05T17:25:18.814Z,15.65
2022-11-05T17:26:51.594Z,15.95
2022-11-05T17:28:24.461Z,16.70
2022-11-05T17:29:57.165Z,15.43
2022-11-05T17:31:31.278Z,18.25
2022-11-05T17:33:04.171Z,14.77
2022-11-05T17:34:37.187Z,15.90
2022-11-05T17:36:12.140Z,15.20
2022-11-05T17:37:44.893Z,15.10
2022-11-05T17:39:17.718Z,14.75
2022-11-05T17:40:50.894Z,14.25
2022-11-05T17:42:23.640Z,15.07
2022-11-05T17:43:57.784Z,18.10
2022-11-05T17:45:31.852Z,14.48
2022-11-05T17:47:07.921Z,13.68
2022-11-05T17:48:41.546Z,15.70
2022-11-05T17:50:16.682Z,14.70
2022-11-05T17:51:49.394Z,14.98
2022-11-05T17:53:22.126Z,16.45
2022-11-05T17:54:54.902Z,19.40
2022-11-05T17:56:34.360Z,17.65
2022-11-05T17:58:07.587Z,15.70
2022-11-05T17:59:41.905Z,15.63
2022-11-05T18:01:26.282Z,15.27
2022-11-05T18:03:01.055Z,18.27
2022-11-05T18:04:33.984Z,19.40
2022-11-05T18:06:07.894Z,18.88
2022-11-05T18:07:40.941Z,19.00
2022-11-05T18:09:14.701Z,21.35
2022-11-05T18:10:47.445Z,17.52
2022-11-05T18:12:20.213Z,15.38
2022-11-05T18:13:52.938Z,16.20
2022-11-05T18:15:25.762Z,17.30
2022-11-05T18:17:00.103Z,16.85
2022-11-05T18:18:34.493Z,17.25
2022-11-05T18:20:12.961Z,15.32
2022-11-05T18:21:50.246Z,14.93
2022-11-05T18:23:22.985Z,14.18
2022-11-05T18:24:55.793Z,14.73
2022-11-05T18:26:28.562Z,14.60
2022-11-05T18:28:02.193Z,15.32
2022-11-05T18:29:34.938Z,16.40
2022-11-05T18:31:17.836Z,14.15
2022-11-05T18:32:51.171Z,15.15
2022-11-05T18:34:25.313Z,14.38
2022-11-05T18:35:58.114Z,18.42
2022-11-05T18:37:30.841Z,11.75
2022-11-05T18:39:05.050Z,15.25
2022-11-05T18:40:37.788Z,13.18
2022-11-05T18:42:11.112Z,12.63
2022-11-05T18:43:44.029Z,11.90
2022-11-05T18:45:16.799Z,12.68
2022-11-05T18:46:58.126Z,16.58
2022-11-05T18:48:31.282Z,14.52
2022-11-05T18:50:06.532Z,12.30
2022-11-05T18:51:40.661Z,9.93
2022-11-05T18:53:13.390Z,10.93
2022-11-05T18:54:46.128Z,14.55
2022-11-05T18:56:19.605Z,11.27
2022-11-05T18:57:52.346Z,11.75
2022-11-05T18:59:40.444Z,11.90
2022-11-05T19:01:17.324Z,9.55
2022-11-05T19:02:50.319Z,12.07
2022-11-05T19:04:23.222Z,10.23
2022-11-05T19:05:57.454Z,11.75
2022-11-05T19:07:30.374Z,18.40
2022-11-05T19:09:03.397Z,13.20
2022-11-05T19:10:36.278Z,12.40
2022-11-05T19:12:09.229Z,10.80
2022-11-05T19:13:42.561Z,12.88
2022-11-05T19:15:15.329Z,12.48
2022-11-05T19:16:48.076Z,9.57
2022-11-05T19:18:21.107Z,12.05
2022-11-05T19:19:54.888Z,11.52
2022-11-05T19:21:30.363Z,14.05
2022-11-05T19:23:03.130Z,10.88
2022-11-05T19:24:35.838Z,9.15
2022-11-05T19:26:09.255Z,14.18
2022-11-05T19:27:43.555Z,9.57
2022-11-05T19:29:16.394Z,9.77
2022-11-05T19:30:49.188Z,12.95
2022-11-05T19:32:22.118Z,11.70
2022-11-05T19:33:56.159Z,10.48
2022-11-05T19:35:29.098Z,8.05
2022-11-05T19:37:03.568Z,10.45
2022-11-05T19:38:36.802Z,10.20
2022-11-05T19:40:11.161Z,10.93
2022-11-05T19:41:44.225Z,10.68
2022-11-05T19:43:17.445Z,10.68
2022-11-05T19:44:50.541Z,8.20
2022-11-05T19:46:24.545Z,11.10
2022-11-05T19:47:57.439Z,10.23
2022-11-05T19:49:30.156Z,10.07
2022-11-05T19:51:06.111Z,11.10
2022-11-05T19:52:40.267Z,8.93
2022-11-05T19:54:13.189Z,12.18
2022-11-05T19:55:46.245Z,9.88
2022-11-05T19:57:19.381Z,11.15
2022-11-05T19:58:53.049Z,8.52
2022-11-05T20:00:25.939Z,9.27
2022-11-05T20:01:58.950Z,9.65
2022-11-05T20:03:32.440Z,10.23
2022-11-05T20:05:05.997Z,12.55
2022-11-05T20:06:40.672Z,16.00
2022-11-05T20:08:15.426Z,13.23
2022-11-05T20:09:48.597Z,15.23
2022-11-05T20:11:21.398Z,11.77
2022-11-05T20:12:54.351Z,14.00
2022-11-05T20:14:28.080Z,14.77
2022-11-05T20:16:01.315Z,19.33
2022-11-05T20:17:34.104Z,13.88
2022-11-05T20:19:09.338Z,15.45
2022-11-05T20:20:42.245Z,15.75
2022-11-05T20:22:15.043Z,14.55
2022-11-05T20:23:49.426Z,11.70
2022-11-05T20:25:22.284Z,11.93
2022-11-05T20:26:56.744Z,12.63
2022-11-05T20:28:29.662Z,11.25
2022-11-05T20:30:02.735Z,12.95
2022-11-05T20:31:36.221Z,13.63
2022-11-05T20:33:09.238Z,12.07
2022-11-05T20:34:42.190Z,14.15
2022-11-05T20:36:17.790Z,14.75
2022-11-05T20:37:53.911Z,14.13
2022-11-05T20:39:28.679Z,16.80
2022-11-05T20:41:01.614Z,12.40
2022-11-05T20:42:37.431Z,14.85
2022-11-05T20:44:10.918Z,14.32
2022-11-05T20:45:43.834Z,16.52
2022-11-05T20:47:16.829Z,15.25
2022-11-05T20:48:50.183Z,14.30
2022-11-05T20:50:23.457Z,15.40
2022-11-05T20:51:56.321Z,13.55
2022-11-05T20:53:29.065Z,17.45
2022-11-05T20:55:03.205Z,48.70
2022-11-05T20:56:36.826Z,18.85
2022-11-05T20:58:09.934Z,21.13
2022-11-05T20:59:42.822Z,21.42
2022-11-05T21:01:16.630Z,15.93
2022-11-05T21:02:49.644Z,15.63
2022-11-05T21:04:22.416Z,14.82
2022-11-05T21:05:59.703Z,15.25
2022-11-05T21:07:32.399Z,15.35
2022-11-05T21:09:06.666Z,15.32
2022-11-05T21:10:40.770Z,15.15